Time;durP1;ratioP1;P1;durP2;ratioP2;P2;SDS_P1;SDS_P2;PMS_P1;PMS_P2;Temp;Humidity;BMP_temperature;BMP_pressure;BME280_temperature;BME280_humidity;BME280_pressure;Samples;Min_cycle;Max_cycle;Signal;HPM_P1;HPM_P2
2022/06/29 00:00:35;;;;;;;;;2.75;2.75;;;;;23.64;58.22;101184.72;5094247;27;45236;-81
2022/06/29 00:03:00;;;;;;;;;2.00;2.00;;;;;23.61;58.70;101196.19;5099929;27;45243;-81
2022/06/29 00:05:27;;;;;;;;;3.00;3.00;;;;;23.62;58.71;101192.69;5099095;27;46008;-81
2022/06/29 00:07:54;;;;;;;;;3.00;3.00;;;;;23.66;58.58;101196.19;5099450;27;45445;-81
2022/06/29 00:10:20;;;;;;;;;2.00;2.00;;;;;23.67;59.21;101192.66;5099232;27;45347;-82
2022/06/29 00:12:47;;;;;;;;;2.50;2.00;;;;;23.62;59.72;101197.06;5099895;27;45417;-81
2022/06/29 00:15:16;;;;;;;;;4.00;1.75;;;;;23.56;59.77;101194.47;5098783;27;45432;-80
2022/06/29 00:17:42;;;;;;;;;2.50;2.00;;;;;23.50;60.02;101190.06;5099095;27;45411;-81
2022/06/29 00:20:12;;;;;;;;;2.50;2.50;;;;;23.45;59.74;101192.72;5099126;27;45390;-79
2022/06/29 00:22:40;;;;;;;;;1.50;1.50;;;;;23.41;59.09;101196.25;5099548;27;45428;-79
2022/06/29 00:25:06;;;;;;;;;3.75;2.25;;;;;23.37;59.92;101191.88;5099344;27;45349;-81
2022/06/29 00:27:32;;;;;;;;;4.00;2.00;;;;;23.36;60.53;101198.03;5098905;27;45599;-81
2022/06/29 00:29:58;;;;;;;;;3.00;2.50;;;;;23.38;60.88;101193.59;5099231;27;45283;-80
2022/06/29 00:32:24;;;;;;;;;2.00;1.75;;;;;23.40;61.17;101186.56;5099241;27;45224;-82
2022/06/29 00:34:50;;;;;;;;;1.50;1.50;;;;;23.38;61.91;101185.69;5098867;27;45458;-82
2022/06/29 00:37:15;;;;;;;;;4.75;3.00;;;;;23.36;61.52;101182.19;5098691;27;45470;-80
2022/06/29 00:39:41;;;;;;;;;2.75;2.75;;;;;23.36;62.66;101189.22;5098995;27;45417;-80
2022/06/29 00:42:07;;;;;;;;;2.25;2.00;;;;;23.35;62.12;101188.34;5099663;27;45540;-81
2022/06/29 00:44:33;;;;;;;;;2.00;2.00;;;;;23.35;62.41;101183.06;5099070;27;46072;-80
2022/06/29 00:47:01;;;;;;;;;2.00;2.00;;;;;23.35;62.92;101177.78;5080926;27;45454;-80
2022/06/29 00:49:29;;;;;;;;;3.00;2.00;;;;;23.32;63.34;101177.78;5088872;27;45393;-80
2022/06/29 00:52:15;;;;;;;;;2.00;2.00;;;;;23.32;62.99;101170.72;5078773;28;45491;-80
2022/06/29 00:54:42;;;;;;;;;5.25;2.25;;;;;23.31;62.96;101169.00;5078095;27;45615;-81
2022/06/29 00:57:17;;;;;;;;;1.00;1.00;;;;;23.28;63.23;101171.63;5077364;27;45846;-80
2022/06/29 00:59:47;;;;;;;;;3.00;2.00;;;;;23.24;62.87;101169.00;5078379;28;45426;-80
2022/06/29 01:02:14;;;;;;;;;2.00;2.00;;;;;23.19;63.62;101169.88;5078365;27;45613;-81
2022/06/29 01:04:40;;;;;;;;;2.50;2.50;;;;;23.19;64.22;101169.88;5079170;27;46123;-80
2022/06/29 01:07:06;;;;;;;;;3.00;2.75;;;;;23.16;64.37;101166.34;5080297;28;45877;-80
2022/06/29 01:09:32;;;;;;;;;2.00;2.00;;;;;23.10;64.09;101167.22;5078888;27;45334;-80
2022/06/29 01:11:58;;;;;;;;;3.00;1.50;;;;;23.07;64.22;101167.22;5078440;27;45792;-81
2022/06/29 01:14:24;;;;;;;;;3.00;1.00;;;;;23.08;63.89;101165.47;5084375;27;46279;-80
2022/06/29 01:16:49;;;;;;;;;3.25;2.00;;;;;23.08;64.33;101170.75;5098155;27;45476;-80
2022/06/29 01:19:15;;;;;;;;;3.00;3.00;;;;;23.04;64.38;101167.25;5098225;27;45271;-81
2022/06/29 01:21:45;;;;;;;;;2.00;2.00;;;;;23.01;64.39;101168.09;5098711;27;45616;-80
2022/06/29 01:24:11;;;;;;;;;2.00;2.00;;;;;22.97;64.35;101160.19;5079534;27;47578;-80
2022/06/29 01:26:36;;;;;;;;;2.50;2.50;;;;;22.94;65.09;101165.50;5098418;27;45391;-80
2022/06/29 01:29:02;;;;;;;;;2.25;2.25;;;;;22.93;65.48;101164.59;5079984;27;45366;-80
2022/06/29 01:31:27;;;;;;;;;2.00;2.00;;;;;22.93;65.24;101161.97;5098324;27;45435;-80
2022/06/29 01:33:53;;;;;;;;;3.50;2.00;;;;;22.95;65.28;101156.66;5097949;27;46524;-81
2022/06/29 01:36:19;;;;;;;;;2.75;2.25;;;;;22.95;65.38;101156.66;5098010;27;45531;-80
2022/06/29 01:38:44;;;;;;;;;3.75;2.50;;;;;22.91;65.76;101149.66;5098320;27;45402;-82
2022/06/29 01:41:11;;;;;;;;;2.25;2.25;;;;;22.89;65.89;101160.22;5098147;27;45339;-80
2022/06/29 01:43:40;;;;;;;;;4.00;3.00;;;;;22.83;66.20;101160.22;5098121;27;45315;-81
2022/06/29 01:46:06;;;;;;;;;1.50;1.50;;;;;22.76;65.99;101167.25;5098085;27;45859;-81
2022/06/29 01:48:32;;;;;;;;;3.75;2.50;;;;;22.68;66.66;101164.59;5097768;27;45340;-80
2022/06/29 01:50:58;;;;;;;;;1.00;1.00;;;;;22.64;66.70;101162.84;5098266;27;45316;-81
2022/06/29 01:53:25;;;;;;;;;4.75;3.50;;;;;22.61;66.72;101167.25;5097444;27;46443;-80
2022/06/29 01:55:51;;;;;;;;;3.25;3.00;;;;;22.56;66.42;101165.47;5097650;27;45253;-78
2022/06/29 01:58:17;;;;;;;;;3.75;2.25;;;;;22.52;66.38;101163.72;5097629;27;45347;-81
2022/06/29 02:00:43;;;;;;;;;4.25;3.00;;;;;22.52;67.12;101161.06;5097246;27;45576;-81
2022/06/29 02:03:09;;;;;;;;;3.00;3.00;;;;;22.52;68.12;101166.34;5097328;27;46557;-80
2022/06/29 02:05:35;;;;;;;;;2.00;2.00;;;;;22.52;67.39;101161.06;5098098;27;45948;-80
2022/06/29 02:08:00;;;;;;;;;3.00;2.25;;;;;22.50;67.92;101154.94;5079483;27;45350;-80
2022/06/29 02:10:26;;;;;;;;;2.75;1.75;;;;;22.49;68.46;101157.56;5079491;27;45332;-80
2022/06/29 02:12:52;;;;;;;;;2.75;2.25;;;;;22.45;68.23;101161.09;5097297;27;45287;-78
2022/06/29 02:15:18;;;;;;;;;2.25;2.25;;;;;22.41;68.47;101152.25;5097270;27;45978;-78
2022/06/29 02:17:43;;;;;;;;;4.25;2.00;;;;;22.35;68.28;101152.22;5097585;27;45517;-80
2022/06/29 02:20:11;;;;;;;;;2.00;2.00;;;;;22.27;68.77;101158.38;5097476;27;45494;-80
2022/06/29 02:22:37;;;;;;;;;2.00;2.00;;;;;22.26;69.42;101159.25;5097373;27;45485;-81
2022/06/29 02:25:03;;;;;;;;;2.00;2.00;;;;;22.27;69.34;101154.84;5079265;27;45613;-82
2022/06/29 02:27:29;;;;;;;;;1.75;1.75;;;;;22.23;69.99;101153.97;5097144;27;45429;-81
2022/06/29 02:29:55;;;;;;;;;4.00;2.50;;;;;22.18;70.76;101154.84;5097472;27;45651;-81
2022/06/29 02:35:05;;;;;;;;;2.00;2.00;;;;;22.16;70.80;101157.47;5084946;27;45407;-81
2022/06/29 02:37:30;;;;;;;;;2.00;2.00;;;;;22.16;71.11;101146.03;5076432;28;45259;-80
2022/06/29 02:39:56;;;;;;;;;3.00;3.00;;;;;22.16;70.67;101156.59;5076965;27;45321;-81
2022/06/29 02:42:22;;;;;;;;;2.75;1.75;;;;;22.14;70.71;101151.31;5075831;28;45987;-80
2022/06/29 02:44:48;;;;;;;;;3.00;1.25;;;;;22.14;70.88;101151.31;5076293;28;45797;-81
2022/06/29 02:47:14;;;;;;;;;2.25;2.25;;;;;22.14;71.12;101153.97;5076529;28;45374;-81
2022/06/29 02:49:40;;;;;;;;;2.00;2.00;;;;;22.06;71.00;101148.66;5077689;27;45426;-81
2022/06/29 02:52:06;;;;;;;;;3.00;3.00;;;;;21.99;71.48;101138.09;5076664;28;45357;-81
2022/06/29 02:54:31;;;;;;;;;3.25;2.00;;;;;21.97;71.59;101146.00;5076300;28;45221;-81
2022/06/29 02:56:57;;;;;;;;;2.50;2.00;;;;;21.99;72.34;101154.81;5076551;28;45355;-81
2022/06/29 02:59:23;;;;;;;;;3.00;2.25;;;;;21.99;71.67;101148.63;5076632;28;45520;-81
2022/06/29 03:01:48;;;;;;;;;3.25;3.00;;;;;21.97;71.52;101148.63;5076218;27;45528;-80
2022/06/29 03:04:14;;;;;;;;;2.25;2.25;;;;;21.98;72.05;101145.13;5075974;28;45234;-81
2022/06/29 03:06:40;;;;;;;;;2.00;2.00;;;;;22.00;71.36;101142.47;5076381;28;45450;-80
2022/06/29 03:09:06;;;;;;;;;2.00;1.00;;;;;22.00;71.13;101139.84;5076926;27;45330;-80
2022/06/29 03:11:32;;;;;;;;;3.00;3.00;;;;;21.98;71.35;101139.84;5057375;28;47502;-81
2022/06/29 03:13:57;;;;;;;;;3.00;1.00;;;;;21.93;70.44;101145.13;5076206;28;45307;-80
2022/06/29 03:16:23;;;;;;;;;1.50;1.50;;;;;21.90;70.14;101136.31;5075462;27;45497;-80
2022/06/29 03:18:49;;;;;;;;;4.75;2.00;;;;;21.88;69.59;101138.94;5057965;28;45523;-80
2022/06/29 03:21:16;;;;;;;;;2.50;1.00;;;;;21.88;69.73;101149.47;5075673;28;45451;-80
2022/06/29 03:23:42;;;;;;;;;3.00;1.25;;;;;21.87;68.85;101149.50;5076026;28;45291;-81
2022/06/29 03:26:08;;;;;;;;;2.00;2.00;;;;;21.85;68.50;101149.50;5075886;28;45422;-79
2022/06/29 03:28:34;;;;;;;;;3.50;1.75;;;;;21.87;68.54;101154.75;5076576;28;45616;-80
2022/06/29 03:31:00;;;;;;;;;2.00;2.00;;;;;21.88;68.19;101144.22;5075668;28;46066;-81
2022/06/29 03:33:25;;;;;;;;;2.00;2.00;;;;;21.91;68.12;101148.63;5075598;28;45477;-80
2022/06/29 03:35:51;;;;;;;;;4.00;2.00;;;;;21.89;68.02;101145.97;5075833;28;45341;-80
2022/06/29 03:38:17;;;;;;;;;1.00;1.00;;;;;21.83;68.29;101134.53;5075776;28;45492;-81
2022/06/29 03:40:42;;;;;;;;;1.50;1.50;;;;;21.82;68.25;101136.28;5057464;28;47576;-80
2022/06/29 03:43:08;;;;;;;;;3.00;3.00;;;;;21.77;69.06;101133.66;5075580;28;45477;-79
2022/06/29 03:45:33;;;;;;;;;2.50;2.50;;;;;21.77;69.88;101140.66;5076125;28;45327;-81
2022/06/29 03:47:59;;;;;;;;;4.00;2.00;;;;;21.72;70.79;101126.59;5075932;28;45252;-79
2022/06/29 03:50:24;;;;;;;;;2.50;2.25;;;;;21.68;71.28;101135.34;5075322;28;46128;-80
2022/06/29 03:52:50;;;;;;;;;3.50;3.00;;;;;21.65;71.59;101139.72;5075585;28;45271;-80
2022/06/29 03:55:16;;;;;;;;;2.00;2.00;;;;;21.63;71.50;101146.78;5075489;28;45264;-80
2022/06/29 03:57:41;;;;;;;;;3.75;2.00;;;;;21.63;71.85;101135.34;5075894;28;45359;-81
2022/06/29 04:00:09;;;;;;;;;1.75;1.75;;;;;21.64;72.32;101148.53;5057507;28;48268;-81
2022/06/29 04:02:36;;;;;;;;;3.00;2.25;;;;;21.59;71.89;101139.72;5075611;27;45376;-80
2022/06/29 04:05:04;;;;;;;;;4.75;3.25;;;;;21.55;72.62;101144.94;5075616;28;45360;-81
2022/06/29 04:07:30;;;;;;;;;3.25;3.25;;;;;21.50;73.51;101148.41;5076431;27;45607;-80
2022/06/29 04:09:59;;;;;;;;;3.50;3.00;;;;;21.52;73.52;101148.44;5075264;28;45299;-80
2022/06/29 04:12:36;;;;;;;;;4.00;4.00;;;;;21.50;73.45;101144.91;5075088;27;45404;-80
2022/06/29 04:15:04;;;;;;;;;3.75;3.50;;;;;21.48;73.21;101144.03;5056641;28;45382;-80
2022/06/29 04:17:30;;;;;;;;;4.00;3.50;;;;;21.43;74.16;101140.50;5075672;28;45367;-81
2022/06/29 04:19:56;;;;;;;;;4.75;4.00;;;;;21.39;73.94;101133.44;5075236;28;45343;-80
2022/06/29 04:22:22;;;;;;;;;3.00;3.00;;;;;21.39;74.57;101138.72;5075172;28;45374;-81
2022/06/29 04:24:49;;;;;;;;;4.00;3.00;;;;;21.38;73.68;101134.31;5078339;27;45345;-81
2022/06/29 04:27:16;;;;;;;;;3.00;3.00;;;;;21.37;74.13;101141.34;5078746;28;45344;-81
2022/06/29 04:29:42;;;;;;;;;3.50;2.50;;;;;21.33;73.75;101136.94;5078533;28;45387;-81
2022/06/29 04:32:08;;;;;;;;;3.00;3.00;;;;;21.29;73.36;101137.75;5091760;27;45935;-78
2022/06/29 04:34:34;;;;;;;;;3.75;3.75;;;;;21.29;73.36;101128.13;5099649;27;45444;-80
2022/06/29 04:36:59;;;;;;;;;3.50;3.50;;;;;21.30;73.88;101137.78;5099412;27;45318;-81
2022/06/29 04:39:25;;;;;;;;;2.00;2.00;;;;;21.33;74.02;101137.78;5098727;27;45932;-81
2022/06/29 04:41:52;;;;;;;;;3.00;3.00;;;;;21.34;73.48;101128.16;5098878;27;45193;-81
2022/06/29 04:44:18;;;;;;;;;3.00;2.25;;;;;21.40;73.68;101135.22;5080351;27;45261;-80
2022/06/29 04:46:44;;;;;;;;;3.75;3.00;;;;;21.38;73.45;101136.94;5099426;27;45334;-81
2022/06/29 04:49:10;;;;;;;;;3.25;3.00;;;;;21.37;73.58;101130.81;5098568;27;46081;-80
2022/06/29 04:51:35;;;;;;;;;4.75;3.50;;;;;21.40;73.89;101135.22;5099041;27;45446;-81
2022/06/29 04:54:02;;;;;;;;;3.25;3.25;;;;;21.40;74.16;101137.84;5098923;27;45440;-80
2022/06/29 04:56:30;;;;;;;;;4.75;3.00;;;;;21.41;74.38;101139.59;5090422;27;45900;-81
2022/06/29 04:58:58;;;;;;;;;2.50;2.50;;;;;21.41;74.36;101142.25;5078245;28;46100;-81
2022/06/29 05:01:25;;;;;;;;;3.50;3.25;;;;;21.41;73.52;101140.47;5077979;28;45169;-81
2022/06/29 05:03:51;;;;;;;;;8.75;5.00;;;;;21.41;73.71;101137.84;5078032;27;45526;-81
2022/06/29 05:06:18;;;;;;;;;5.00;3.25;;;;;21.42;73.99;101133.47;5078245;28;45512;-81
2022/06/29 05:08:43;;;;;;;;;3.75;3.25;;;;;21.39;74.11;101133.44;5079336;28;46018;-81
2022/06/29 05:11:10;;;;;;;;;4.75;3.25;;;;;21.36;74.41;101142.22;5080034;28;45445;-81
2022/06/29 05:13:35;;;;;;;;;4.00;3.00;;;;;21.33;73.94;101134.28;5078739;28;45297;-79
2022/06/29 05:16:01;;;;;;;;;6.00;4.00;;;;;21.30;74.12;101136.91;5078045;28;45634;-78
2022/06/29 05:18:28;;;;;;;;;4.00;4.00;;;;;21.30;73.66;101131.63;5077635;27;45247;-79
2022/06/29 05:20:54;;;;;;;;;5.00;4.00;;;;;21.26;73.26;101128.09;5077906;28;45624;-79
2022/06/29 05:23:20;;;;;;;;;2.00;2.00;;;;;21.26;73.27;101133.38;5059520;28;45252;-79
2022/06/29 05:25:45;;;;;;;;;3.25;2.00;;;;;21.25;71.87;101133.38;5078157;28;45304;-79
2022/06/29 05:28:11;;;;;;;;;2.25;2.25;;;;;21.25;71.20;101134.25;5077454;28;45514;-79
2022/06/29 05:30:38;;;;;;;;;2.00;2.00;;;;;21.23;70.11;101138.59;5078343;28;45680;-79
2022/06/29 05:33:04;;;;;;;;;1.75;1.25;;;;;21.20;69.68;101143.88;5079036;28;45297;-78
2022/06/29 05:35:33;;;;;;;;;2.25;2.25;;;;;21.12;69.25;101140.28;5083487;27;45502;-79
2022/06/29 05:38:02;;;;;;;;;2.50;2.00;;;;;21.07;68.69;101144.66;5077584;28;45323;-79
2022/06/29 05:40:29;;;;;;;;;2.00;2.00;;;;;21.05;69.25;101144.66;5077196;27;45347;-79
2022/06/29 05:42:57;;;;;;;;;2.25;2.00;;;;;21.05;69.46;101147.31;5077727;28;45383;-79
2022/06/29 05:45:24;;;;;;;;;3.25;3.00;;;;;21.01;68.50;101142.88;5077649;28;45435;-79
2022/06/29 05:47:50;;;;;;;;;3.00;3.00;;;;;20.96;68.65;101142.84;5077417;28;45282;-79
2022/06/29 05:50:16;;;;;;;;;5.00;2.00;;;;;20.94;68.68;101138.44;5077158;28;45398;-79
2022/06/29 05:52:41;;;;;;;;;2.25;2.25;;;;;20.96;67.98;101136.69;5077772;27;45434;-79
2022/06/29 05:55:08;;;;;;;;;2.00;1.75;;;;;20.94;67.92;101131.41;5078980;27;45387;-79
2022/06/29 05:57:34;;;;;;;;;2.00;1.25;;;;;20.97;66.65;101126.19;5059636;28;45687;-79
2022/06/29 06:00:01;;;;;;;;;3.00;1.75;;;;;20.99;65.53;101134.06;5077257;28;45437;-79
2022/06/29 06:02:27;;;;;;;;;2.00;2.00;;;;;21.03;64.94;101127.97;5077247;28;45258;-79
2022/06/29 06:04:53;;;;;;;;;3.50;2.00;;;;;21.03;65.26;101134.09;5059551;28;45272;-79
2022/06/29 06:07:18;;;;;;;;;1.00;1.00;;;;;21.03;64.87;101134.09;5076846;28;46027;-79
2022/06/29 06:09:44;;;;;;;;;2.50;2.00;;;;;21.08;64.22;101135.91;5058631;28;45314;-79
2022/06/29 06:12:11;;;;;;;;;3.00;3.00;;;;;21.10;64.13;101142.94;5057997;28;45508;-78
2022/06/29 06:14:37;;;;;;;;;3.00;1.75;;;;;21.07;63.41;101139.41;5077020;28;45446;-79
2022/06/29 06:17:03;;;;;;;;;3.25;2.00;;;;;20.99;63.45;101137.59;5076970;27;46348;-79
2022/06/29 06:19:29;;;;;;;;;4.00;1.00;;;;;20.97;63.68;101134.06;5076628;28;45260;-79
2022/06/29 06:21:54;;;;;;;;;10.25;8.00;;;;;20.97;63.65;101143.72;5076868;27;45425;-79
2022/06/29 06:24:20;;;;;;;;;6.00;5.00;;;;;21.01;64.05;101137.59;5077669;27;45367;-78
2022/06/29 06:26:46;;;;;;;;;3.00;1.00;;;;;21.03;64.12;101142.00;5062969;28;45318;-79
2022/06/29 06:29:12;;;;;;;;;2.00;2.00;;;;;21.02;63.83;101139.38;5076265;27;45268;-80
2022/06/29 06:31:37;;;;;;;;;3.00;2.00;;;;;21.02;63.88;101144.63;5058508;28;45410;-79
2022/06/29 06:34:03;;;;;;;;;2.00;2.00;;;;;21.03;63.93;101155.16;5058869;28;45354;-79
2022/06/29 06:36:29;;;;;;;;;4.50;3.00;;;;;21.03;63.70;101147.28;5075439;28;46122;-76
2022/06/29 06:38:54;;;;;;;;;1.50;1.00;;;;;21.03;63.16;101151.66;5077288;27;45391;-82
2022/06/29 06:41:24;;;;;;;;;2.25;2.00;;;;;21.04;63.18;101153.44;5080291;28;45657;-80
2022/06/29 06:43:58;;;;;;;;;2.75;1.50;;;;;21.05;63.79;101149.94;5077219;28;45429;-81
2022/06/29 06:46:25;;;;;;;;;2.00;2.00;;;;;21.09;63.54;101145.56;5075599;28;45700;-80
2022/06/29 06:48:52;;;;;;;;;2.00;1.50;;;;;21.11;63.32;101138.56;5076636;27;45707;-81
2022/06/29 06:51:19;;;;;;;;;4.00;2.00;;;;;21.12;62.86;101138.56;5076266;27;45493;-82
2022/06/29 06:53:46;;;;;;;;;2.00;2.00;;;;;21.16;62.50;101136.81;5076318;28;45470;-80
2022/06/29 06:56:12;;;;;;;;;3.50;2.25;;;;;21.21;62.53;101127.22;5075104;28;45388;-80
2022/06/29 06:58:38;;;;;;;;;1.00;1.00;;;;;21.26;62.81;101135.13;5076224;28;45395;-80
2022/06/29 07:01:05;;;;;;;;;5.75;5.00;;;;;21.30;63.42;101129.91;5076628;28;45323;-79
2022/06/29 07:03:31;;;;;;;;;2.50;2.00;;;;;21.33;62.47;101135.16;5079089;28;45554;-86
2022/06/29 07:06:00;;;;;;;;;1.00;1.00;;;;;21.38;62.54;101131.69;5077642;27;45895;-86
2022/06/29 07:08:27;;;;;;;;;3.00;2.00;;;;;21.41;62.01;101129.06;5076200;28;45749;-87
2022/06/29 07:10:54;;;;;;;;;2.00;2.00;;;;;21.44;61.28;101144.88;5077843;28;45296;-87
2022/06/29 07:13:19;;;;;;;;;4.00;2.00;;;;;21.46;61.03;101137.84;5080102;27;45569;-86
2022/06/29 07:15:45;;;;;;;;;48.25;24.25;;;;;21.59;61.61;101136.22;5090580;27;45405;-90
2022/06/29 07:18:10;;;;;;;;;2.00;2.00;;;;;21.67;61.35;101137.13;5082328;28;45307;-87
2022/06/29 07:20:36;;;;;;;;;1.75;1.75;;;;;21.72;60.97;101131.88;5079002;27;45305;-82
2022/06/29 07:23:01;;;;;;;;;2.75;2.00;;;;;21.75;60.30;101135.38;5084994;27;45513;-83
2022/06/29 07:25:27;;;;;;;;;2.00;2.00;;;;;21.77;60.50;101124.84;5090297;27;45761;-84
2022/06/29 07:27:52;;;;;;;;;3.00;2.00;;;;;21.81;60.25;101134.53;5097530;27;45502;-90
2022/06/29 07:30:18;;;;;;;;;1.50;1.00;;;;;21.85;60.46;101138.94;5083136;28;45413;-89
2022/06/29 07:32:44;;;;;;;;;1.50;1.00;;;;;21.86;60.00;101127.53;5078870;27;45485;-87
2022/06/29 07:35:09;;;;;;;;;3.00;2.00;;;;;21.90;59.85;101138.97;5067048;27;46965;-84
2022/06/29 07:37:35;;;;;;;;;2.25;1.75;;;;;21.96;59.24;101136.34;5073425;28;45354;-84
2022/06/29 07:40:03;;;;;;;;;1.25;1.25;;;;;22.01;59.68;101134.59;5076433;28;45476;-89
2022/06/29 07:42:31;;;;;;;;;2.00;1.00;;;;;22.03;58.74;101134.59;5080990;28;45651;-87
2022/06/29 07:44:56;;;;;;;;;2.75;1.25;;;;;22.07;58.33;101121.41;5075940;28;46232;-84
2022/06/29 07:47:22;;;;;;;;;2.00;2.00;;;;;22.08;58.34;101117.03;5077405;28;45328;-85
2022/06/29 07:49:48;;;;;;;;;1.00;1.00;;;;;22.13;58.17;101128.47;5076503;28;45430;-89
2022/06/29 07:52:13;;;;;;;;;2.75;2.00;;;;;22.13;58.42;101124.97;5061450;28;45560;-89
2022/06/29 07:54:39;;;;;;;;;2.25;1.75;;;;;22.16;58.52;101122.31;5079812;28;45969;-86
2022/06/29 07:57:05;;;;;;;;;2.00;2.00;;;;;22.20;58.01;101122.31;5074772;28;45463;-87
2022/06/29 07:59:30;;;;;;;;;1.00;1.00;;;;;22.26;58.43;101129.34;5080982;28;45303;-92
2022/06/29 08:01:56;;;;;;;;;2.00;2.00;;;;;22.35;58.34;101129.34;5085488;27;45420;-88
2022/06/29 08:04:21;;;;;;;;;3.00;1.50;;;;;22.42;58.48;101122.38;5083489;27;45458;-86
2022/06/29 08:06:47;;;;;;;;;0.75;0.75;;;;;22.48;58.54;101127.66;5068567;27;45412;-90
2022/06/29 08:09:13;;;;;;;;;2.75;1.75;;;;;22.51;58.41;101132.06;5101375;27;45419;-90
2022/06/29 08:11:38;;;;;;;;;1.00;1.00;;;;;22.52;58.08;101124.13;5087291;27;46225;-84
2022/06/29 08:14:04;;;;;;;;;1.50;0.75;;;;;22.49;57.74;101124.16;5090426;27;45877;-87
2022/06/29 08:16:30;;;;;;;;;1.00;1.00;;;;;22.49;57.83;101126.78;5100204;27;45445;-84
2022/06/29 08:18:55;;;;;;;;;2.50;1.50;;;;;22.46;57.94;101131.19;5068776;27;45529;-85
2022/06/29 08:21:21;;;;;;;;;1.25;1.00;;;;;22.43;58.47;101118.84;5080720;27;45282;-87
2022/06/29 08:23:47;;;;;;;;;2.00;1.75;;;;;22.40;58.27;101121.47;5080048;28;45934;-89
2022/06/29 08:26:13;;;;;;;;;2.00;2.00;;;;;22.37;58.82;101100.38;5079573;28;45334;-86
2022/06/29 08:28:38;;;;;;;;;3.00;2.25;;;;;22.40;59.42;101118.84;5078604;28;45411;-86
2022/06/29 08:31:04;;;;;;;;;4.75;3.50;;;;;22.40;59.80;101113.56;5078524;28;45384;-86
2022/06/29 08:33:30;;;;;;;;;2.00;1.00;;;;;22.40;59.94;101106.53;5078718;27;45224;-87
2022/06/29 08:35:55;;;;;;;;;1.00;1.00;;;;;22.45;59.90;101100.41;5079133;28;45325;-86
2022/06/29 08:38:21;;;;;;;;;1.75;1.00;;;;;22.47;59.72;101102.16;5079054;27;45400;-84
2022/06/29 08:40:48;;;;;;;;;1.00;1.00;;;;;22.47;59.74;101101.25;5079566;28;45438;-87
2022/06/29 08:43:16;;;;;;;;;2.25;1.00;;;;;22.49;59.39;101102.16;5080143;27;45618;-83
2022/06/29 08:45:44;;;;;;;;;2.00;1.00;;;;;22.50;59.26;101099.53;5083301;27;45401;-86
2022/06/29 08:48:11;;;;;;;;;1.00;1.00;;;;;22.52;58.95;101105.66;5080533;27;45277;-85
2022/06/29 08:50:42;;;;;;;;;3.75;1.75;;;;;22.56;58.67;101102.16;5079230;28;45392;-84
2022/06/29 08:53:14;;;;;;;;;4.00;1.25;;;;;22.62;58.76;101100.41;5078377;28;45359;-82
2022/06/29 08:55:48;;;;;;;;;3.00;1.50;;;;;22.68;59.11;101100.38;5079002;27;45452;-86
2022/06/29 08:58:17;;;;;;;;;3.25;1.25;;;;;22.75;56.63;101112.69;5079453;27;45429;-84
2022/06/29 09:00:43;;;;;;;;;3.50;1.75;;;;;22.81;56.26;101101.25;5079266;27;45299;-83
2022/06/29 09:03:10;;;;;;;;;1.00;1.00;;;;;22.86;56.03;101108.28;5078262;28;45359;-83
2022/06/29 09:05:39;;;;;;;;;1.00;1.00;;;;;22.90;56.02;101106.50;5079241;27;45362;-87
2022/06/29 09:08:05;;;;;;;;;3.00;1.00;;;;;22.92;55.48;101101.25;5080139;28;45489;-88
2022/06/29 09:10:31;;;;;;;;;1.00;1.00;;;;;22.92;56.01;101106.53;5082539;27;45516;-89
2022/06/29 09:13:01;;;;;;;;;3.00;2.00;;;;;22.93;55.26;101118.84;5083186;28;45268;-88
2022/06/29 09:15:38;;;;;;;;;1.50;1.25;;;;;22.91;52.34;101103.00;5081358;28;45324;-88
2022/06/29 09:18:22;;;;;;;;;1.00;1.00;;;;;22.90;53.11;101106.50;5082931;28;45377;-88
2022/06/29 09:20:53;;;;;;;;;1.00;1.00;;;;;22.88;52.54;101105.66;5080861;28;45367;-86
2022/06/29 09:23:19;;;;;;;;;1.75;1.75;;;;;22.91;52.02;101110.91;5080142;27;45225;-87
2022/06/29 09:25:45;;;;;;;;;2.00;2.00;;;;;22.96;52.20;101105.63;5080472;28;45249;-86
2022/06/29 09:28:27;;;;;;;;;1.00;1.00;;;;;23.02;51.34;101118.81;5079492;28;45537;-87
2022/06/29 09:30:55;;;;;;;;;1.50;0.75;;;;;23.00;51.08;101110.03;5060105;28;45351;-88
2022/06/29 09:33:22;;;;;;;;;2.00;2.00;;;;;22.97;50.58;101124.13;5078652;28;45950;-87
2022/06/29 09:36:05;;;;;;;;;1.75;1.75;;;;;22.97;50.75;101115.31;5080736;27;45618;-88
2022/06/29 09:38:31;;;;;;;;;3.75;2.00;;;;;22.97;51.06;101123.22;5080497;28;45267;-87
2022/06/29 09:40:57;;;;;;;;;2.00;2.00;;;;;22.95;51.35;101117.06;5078376;27;45408;-88
2022/06/29 09:43:24;;;;;;;;;1.50;1.00;;;;;22.94;50.96;101118.84;5077703;28;45457;-87
2022/06/29 09:45:51;;;;;;;;;3.00;1.25;;;;;22.93;50.40;101124.13;5059259;28;45733;-86
2022/06/29 09:48:22;;;;;;;;;1.25;1.25;;;;;22.90;50.77;101122.34;5077544;28;45288;-87
2022/06/29 09:50:52;;;;;;;;;2.75;2.75;;;;;22.91;50.28;101113.53;5078070;27;45334;-86
2022/06/29 09:53:19;;;;;;;;;2.75;2.00;;;;;22.93;50.65;101129.41;5077102;28;45253;-87
2022/06/29 09:55:49;;;;;;;;;1.75;1.00;;;;;22.90;50.98;101125.00;5077488;28;45716;-87
2022/06/29 09:58:18;;;;;;;;;1.75;1.00;;;;;22.90;50.40;101122.34;5077586;28;45401;-87
2022/06/29 10:03:31;;;;;;;;;1.00;1.00;;;;;22.90;50.46;101118.84;5089183;28;45693;-85
2022/06/29 10:06:05;;;;;;;;;1.00;1.00;;;;;22.91;50.04;101116.19;5078662;28;45754;-89
2022/06/29 10:08:32;;;;;;;;;1.00;1.00;;;;;22.93;49.43;101101.22;5078275;28;45474;-86
2022/06/29 10:13:39;;;;;;;;;2.00;1.00;;;;;22.96;50.39;101106.50;5077542;28;45498;-86
2022/06/29 10:13:58;;;;;;;;;1.00;1.00;;;;;23.04;50.56;101101.22;5077044;28;45858;-89
2022/06/29 10:16:40;;;;;;;;;0.75;0.75;;;;;23.16;50.00;101105.56;5092008;27;45348;-88
2022/06/29 10:19:37;;;;;;;;;1.25;1.25;;;;;23.23;48.85;101109.97;5093400;27;45471;-87
2022/06/29 10:22:02;;;;;;;;;1.50;1.25;;;;;23.30;49.63;101105.56;5077467;28;45222;-87
2022/06/29 10:24:28;;;;;;;;;1.00;1.00;;;;;23.40;49.24;101099.38;5094446;27;45623;-87
2022/06/29 10:26:54;;;;;;;;;1.00;1.00;;;;;23.49;48.81;101094.03;5077942;28;45313;-86
2022/06/29 10:29:19;;;;;;;;;1.00;1.00;;;;;23.57;48.49;101085.22;5081034;28;45386;-88
2022/06/29 10:31:51;;;;;;;;;2.00;2.00;;;;;23.59;48.56;101083.44;5083340;28;45473;-87
2022/06/29 10:37:14;;;;;;;;;0.50;0.25;;;;;23.70;49.07;101075.44;5078520;28;45259;-86
2022/06/29 10:39:45;;;;;;;;;2.00;1.50;;;;;23.80;49.21;101070.13;5078252;28;45197;-87
2022/06/29 10:45:16;;;;;;;;;9.75;5.50;;;;;23.90;44.15;101068.28;5078212;28;45685;-82
2022/06/29 10:47:48;;;;;;;;;3.75;3.75;;;;;23.93;44.47;101064.72;5093536;27;45289;-88
2022/06/29 10:52:44;;;;;;;;;1.25;1.25;;;;;23.90;44.03;101073.56;5077568;28;45345;-87
2022/06/29 10:55:09;;;;;;;;;1.00;1.00;;;;;23.87;44.79;101055.06;5079271;28;45193;-86
2022/06/29 10:57:37;;;;;;;;;0.50;0.50;;;;;23.86;44.86;101055.09;5077817;27;45294;-88
2022/06/29 11:00:07;;;;;;;;;2.50;2.50;;;;;23.88;44.93;101062.09;5077421;28;45464;-88
2022/06/29 11:02:32;;;;;;;;;1.25;1.00;;;;;23.90;45.31;101064.75;5077703;28;45226;-88
2022/06/29 11:04:58;;;;;;;;;0.00;0.00;;;;;23.94;45.06;101064.72;5058941;28;48228;-87
2022/06/29 11:12:53;;;;;;;;;3.00;1.00;;;;;24.03;45.04;101050.56;5079094;28;45359;-81
2022/06/29 11:15:42;;;;;;;;;2.00;1.00;;;;;24.12;45.19;101049.63;5075782;27;45220;-82
2022/06/29 11:18:07;;;;;;;;;2.00;1.00;;;;;24.17;44.40;101053.13;5076583;27;45654;-81
2022/06/29 11:20:33;;;;;;;;;2.00;2.00;;;;;24.22;44.60;101042.50;5078099;28;45303;-88
2022/06/29 11:22:59;;;;;;;;;1.25;1.25;;;;;24.26;44.44;101037.19;5079266;28;45382;-89
2022/06/29 11:25:26;;;;;;;;;1.00;1.00;;;;;24.28;44.46;101039.81;5076463;27;45336;-88
2022/06/29 11:27:52;;;;;;;;;1.00;1.00;;;;;24.27;42.84;101035.41;5076652;28;45263;-88
2022/06/29 11:30:23;;;;;;;;;1.00;1.00;;;;;24.23;43.22;101039.84;5077018;28;45308;-89
2022/06/29 11:32:49;;;;;;;;;1.00;1.00;;;;;24.23;43.00;101042.50;5079048;27;45574;-87
2022/06/29 11:35:22;;;;;;;;;1.00;0.00;;;;;24.23;43.01;101046.91;5080801;28;45478;-88
2022/06/29 11:37:49;;;;;;;;;1.50;1.00;;;;;24.26;43.20;101047.75;5062352;28;45354;-86
2022/06/29 11:40:19;;;;;;;;;0.00;0.00;;;;;24.29;42.43;101036.28;5080790;27;45415;-87
2022/06/29 11:45:51;;;;;;;;;2.00;1.25;;;;;24.31;42.25;101038.88;5080134;28;45348;-87